sensor_id;sensor_type;location;lat;lon;timestamp;pressure;altitude;pressure_sealevel;temperature;humidity
76011;BME280;64701;43.536;1.478;2023-04-21T00:00:51;98563.63;;;15.49;62.11
76011;BME280;64701;43.536;1.478;2023-04-21T00:03:17;98555.69;;;15.37;62.36
76011;BME280;64701;43.536;1.478;2023-04-21T00:05:45;98567.75;;;15.40;60.91
76011;BME280;64701;43.536;1.478;2023-04-21T00:08:10;98570.34;;;15.35;61.56
76011;BME280;64701;43.536;1.478;2023-04-21T00:10:35;98565.59;;;15.20;62.30
76011;BME280;64701;43.536;1.478;2023-04-21T00:13:01;98560.03;;;15.22;60.76
76011;BME280;64701;43.536;1.478;2023-04-21T00:15:26;98568.19;;;15.15;61.50
76011;BME280;64701;43.536;1.478;2023-04-21T00:17:51;98555.59;;;15.10;59.84
76011;BME280;64701;43.536;1.478;2023-04-21T00:20:17;98555.59;;;15.10;60.64
76011;BME280;64701;43.536;1.478;2023-04-21T00:22:42;98560.44;;;15.13;58.97
76011;BME280;64701;43.536;1.478;2023-04-21T00:25:07;98563.09;;;15.13;59.31
76011;BME280;64701;43.536;1.478;2023-04-21T00:27:33;98562.41;;;15.01;61.44
76011;BME280;64701;43.536;1.478;2023-04-21T00:29:58;98563.78;;;14.87;61.53
76011;BME280;64701;43.536;1.478;2023-04-21T00:32:23;98560.75;;;14.67;63.23
76011;BME280;64701;43.536;1.478;2023-04-21T00:34:48;98565.78;;;14.63;63.58
76011;BME280;64701;43.536;1.478;2023-04-21T00:37:14;98567.56;;;14.58;64.38
76011;BME280;64701;43.536;1.478;2023-04-21T00:39:39;98574.78;;;14.46;65.38
76011;BME280;64701;43.536;1.478;2023-04-21T00:42:05;98568.09;;;14.43;65.66
76011;BME280;64701;43.536;1.478;2023-04-21T00:44:30;98569.03;;;14.37;65.96
76011;BME280;64701;43.536;1.478;2023-04-21T00:46:55;98571.81;;;14.30;67.00
76011;BME280;64701;43.536;1.478;2023-04-21T00:49:21;98554.94;;;14.25;67.64
76011;BME280;64701;43.536;1.478;2023-04-21T00:51:47;98559.38;;;14.19;67.93
76011;BME280;64701;43.536;1.478;2023-04-21T00:54:13;98562.06;;;14.08;69.32
76011;BME280;64701;43.536;1.478;2023-04-21T00:56:38;98562.66;;;14.10;68.75
76011;BME280;64701;43.536;1.478;2023-04-21T00:59:03;98564.50;;;14.09;68.79
76011;BME280;64701;43.536;1.478;2023-04-21T01:01:29;98553.53;;;14.06;69.10
76011;BME280;64701;43.536;1.478;2023-04-21T01:03:58;98556.88;;;14.01;69.76
76011;BME280;64701;43.536;1.478;2023-04-21T01:06:24;98550.91;;;13.94;70.21
76011;BME280;64701;43.536;1.478;2023-04-21T01:08:52;98554.88;;;13.80;71.63
76011;BME280;64701;43.536;1.478;2023-04-21T01:11:18;98547.50;;;13.82;71.16
76011;BME280;64701;43.536;1.478;2023-04-21T01:13:43;98549.88;;;13.83;70.99
76011;BME280;64701;43.536;1.478;2023-04-21T01:16:08;98549.44;;;13.86;71.01
76011;BME280;64701;43.536;1.478;2023-04-21T01:18:40;98549.06;;;13.83;71.03
76011;BME280;64701;43.536;1.478;2023-04-21T01:21:05;98546.00;;;13.74;72.09
76011;BME280;64701;43.536;1.478;2023-04-21T01:23:31;98541.50;;;13.75;71.72
76011;BME280;64701;43.536;1.478;2023-04-21T01:25:56;98541.63;;;13.68;72.31
76011;BME280;64701;43.536;1.478;2023-04-21T01:28:22;98543.25;;;13.58;73.47
76011;BME280;64701;43.536;1.478;2023-04-21T01:30:47;98541.28;;;13.53;73.58
76011;BME280;64701;43.536;1.478;2023-04-21T01:33:13;98540.38;;;13.47;74.46
76011;BME280;64701;43.536;1.478;2023-04-21T01:35:38;98542.13;;;13.42;74.63
76011;BME280;64701;43.536;1.478;2023-04-21T01:38:04;98548.72;;;13.39;74.63
76011;BME280;64701;43.536;1.478;2023-04-21T01:40:29;98547.56;;;13.35;74.70
76011;BME280;64701;43.536;1.478;2023-04-21T01:42:55;98541.09;;;13.31;75.26
76011;BME280;64701;43.536;1.478;2023-04-21T01:45:20;98538.78;;;13.23;75.98
76011;BME280;64701;43.536;1.478;2023-04-21T01:47:45;98541.69;;;13.22;75.98
76011;BME280;64701;43.536;1.478;2023-04-21T01:50:11;98540.41;;;13.24;75.49
76011;BME280;64701;43.536;1.478;2023-04-21T01:52:36;98539.59;;;13.24;75.99
76011;BME280;64701;43.536;1.478;2023-04-21T01:55:01;98544.69;;;13.14;76.42
76011;BME280;64701;43.536;1.478;2023-04-21T01:57:27;98539.00;;;13.10;76.71
76011;BME280;64701;43.536;1.478;2023-04-21T01:59:52;98545.38;;;13.09;77.00
76011;BME280;64701;43.536;1.478;2023-04-21T02:02:17;98534.50;;;13.11;77.29
76011;BME280;64701;43.536;1.478;2023-04-21T02:04:42;98537.50;;;13.02;77.59
76011;BME280;64701;43.536;1.478;2023-04-21T02:07:08;98536.09;;;13.00;77.81
76011;BME280;64701;43.536;1.478;2023-04-21T02:09:33;98541.41;;;13.00;77.44
76011;BME280;64701;43.536;1.478;2023-04-21T02:11:58;98549.06;;;12.96;77.73
76011;BME280;64701;43.536;1.478;2023-04-21T02:14:24;98546.19;;;12.98;77.55
76011;BME280;64701;43.536;1.478;2023-04-21T02:16:49;98553.56;;;12.96;78.03
76011;BME280;64701;43.536;1.478;2023-04-21T02:19:15;98546.63;;;12.95;78.35
76011;BME280;64701;43.536;1.478;2023-04-21T02:21:40;98546.28;;;12.91;78.67
76011;BME280;64701;43.536;1.478;2023-04-21T02:24:05;98552.97;;;12.94;77.87
76011;BME280;64701;43.536;1.478;2023-04-21T02:26:31;98552.41;;;12.92;78.47
76011;BME280;64701;43.536;1.478;2023-04-21T02:28:56;98552.84;;;12.89;78.80
76011;BME280;64701;43.536;1.478;2023-04-21T02:31:21;98552.16;;;12.82;79.15
76011;BME280;64701;43.536;1.478;2023-04-21T02:33:47;98554.94;;;12.87;78.58
76011;BME280;64701;43.536;1.478;2023-04-21T02:36:12;98560.94;;;12.82;78.99
76011;BME280;64701;43.536;1.478;2023-04-21T02:38:37;98567.16;;;12.76;79.34
76011;BME280;64701;43.536;1.478;2023-04-21T02:41:02;98566.13;;;12.77;79.31
76011;BME280;64701;43.536;1.478;2023-04-21T02:43:28;98564.16;;;12.73;79.88
76011;BME280;64701;43.536;1.478;2023-04-21T02:45:53;98558.03;;;12.72;79.31
76011;BME280;64701;43.536;1.478;2023-04-21T02:48:18;98568.19;;;12.75;78.56
76011;BME280;64701;43.536;1.478;2023-04-21T02:50:47;98557.22;;;12.72;78.98
76011;BME280;64701;43.536;1.478;2023-04-21T02:53:12;98561.72;;;12.71;78.99
76011;BME280;64701;43.536;1.478;2023-04-21T02:55:38;98568.31;;;12.68;79.53
76011;BME280;64701;43.536;1.478;2023-04-21T02:58:03;98561.00;;;12.64;79.60
76011;BME280;64701;43.536;1.478;2023-04-21T03:00:28;98559.75;;;12.66;79.04
76011;BME280;64701;43.536;1.478;2023-04-21T03:02:53;98559.44;;;12.63;79.84
76011;BME280;64701;43.536;1.478;2023-04-21T03:05:19;98558.47;;;12.57;80.81
76011;BME280;64701;43.536;1.478;2023-04-21T03:07:45;98557.53;;;12.52;81.26
76011;BME280;64701;43.536;1.478;2023-04-21T03:10:10;98561.59;;;12.54;80.06
76011;BME280;64701;43.536;1.478;2023-04-21T03:12:35;98552.59;;;12.55;79.96
76011;BME280;64701;43.536;1.478;2023-04-21T03:15:01;98559.16;;;12.53;80.49
76011;BME280;64701;43.536;1.478;2023-04-21T03:17:26;98562.84;;;12.52;80.17
76011;BME280;64701;43.536;1.478;2023-04-21T03:19:52;98560.88;;;12.47;80.88
76011;BME280;64701;43.536;1.478;2023-04-21T03:22:17;98561.47;;;12.49;79.58
76011;BME280;64701;43.536;1.478;2023-04-21T03:24:42;98564.13;;;12.49;79.87
76011;BME280;64701;43.536;1.478;2023-04-21T03:27:07;98574.75;;;12.49;80.05
76011;BME280;64701;43.536;1.478;2023-04-21T03:29:34;98569.31;;;12.44;80.84
76011;BME280;64701;43.536;1.478;2023-04-21T03:32:00;98571.59;;;12.41;80.46
76011;BME280;64701;43.536;1.478;2023-04-21T03:34:25;98572.41;;;12.41;80.42
76011;BME280;64701;43.536;1.478;2023-04-21T03:36:50;98575.13;;;12.35;81.08
76011;BME280;64701;43.536;1.478;2023-04-21T03:39:15;98571.03;;;12.39;80.31
76011;BME280;64701;43.536;1.478;2023-04-21T03:41:41;98577.34;;;12.38;80.54
76011;BME280;64701;43.536;1.478;2023-04-21T03:44:06;98583.34;;;12.33;81.49
76011;BME280;64701;43.536;1.478;2023-04-21T03:46:31;98570.72;;;12.28;81.90
76011;BME280;64701;43.536;1.478;2023-04-21T03:48:57;98575.00;;;12.30;81.45
76011;BME280;64701;43.536;1.478;2023-04-21T03:51:22;98572.56;;;12.28;81.70
76011;BME280;64701;43.536;1.478;2023-04-21T03:53:49;98576.72;;;12.24;81.99
76011;BME280;64701;43.536;1.478;2023-04-21T03:56:14;98577.63;;;12.18;83.12
76011;BME280;64701;43.536;1.478;2023-04-21T03:58:39;98578.53;;;12.12;83.48
76011;BME280;64701;43.536;1.478;2023-04-21T04:01:05;98576.91;;;12.11;83.37
76011;BME280;64701;43.536;1.478;2023-04-21T04:03:31;98578.97;;;12.09;84.04
76011;BME280;64701;43.536;1.478;2023-04-21T04:05:56;98579.88;;;12.03;84.22
76011;BME280;64701;43.536;1.478;2023-04-21T04:08:22;98586.00;;;12.03;83.66
76011;BME280;64701;43.536;1.478;2023-04-21T04:10:47;98581.03;;;12.07;83.36
76011;BME280;64701;43.536;1.478;2023-04-21T04:13:12;98581.41;;;12.10;82.54
76011;BME280;64701;43.536;1.478;2023-04-21T04:15:37;98587.38;;;12.06;83.67
76011;BME280;64701;43.536;1.478;2023-04-21T04:18:03;98586.78;;;12.04;83.50
76011;BME280;64701;43.536;1.478;2023-04-21T04:20:28;98578.59;;;12.05;83.47
76011;BME280;64701;43.536;1.478;2023-04-21T04:22:53;98591.31;;;12.03;83.57
76011;BME280;64701;43.536;1.478;2023-04-21T04:25:19;98580.69;;;12.03;83.87
76011;BME280;64701;43.536;1.478;2023-04-21T04:27:45;98581.47;;;12.04;83.16
76011;BME280;64701;43.536;1.478;2023-04-21T04:30:11;98582.75;;;12.01;84.28
76011;BME280;64701;43.536;1.478;2023-04-21T04:32:37;98578.25;;;12.02;83.33
76011;BME280;64701;43.536;1.478;2023-04-21T04:35:07;98578.25;;;12.02;84.22
76011;BME280;64701;43.536;1.478;2023-04-21T04:37:34;98575.59;;;12.02;84.24
76011;BME280;64701;43.536;1.478;2023-04-21T04:39:59;98576.84;;;11.99;83.79
76011;BME280;64701;43.536;1.478;2023-04-21T04:42:24;98573.84;;;11.96;84.29
76011;BME280;64701;43.536;1.478;2023-04-21T04:44:53;98573.84;;;11.96;84.65
76011;BME280;64701;43.536;1.478;2023-04-21T04:47:18;98578.56;;;11.94;84.32
76011;BME280;64701;43.536;1.478;2023-04-21T04:49:44;98573.25;;;11.94;84.94
76011;BME280;64701;43.536;1.478;2023-04-21T04:52:09;98579.16;;;11.96;84.68
76011;BME280;64701;43.536;1.478;2023-04-21T04:54:35;98576.72;;;11.94;84.97
76011;BME280;64701;43.536;1.478;2023-04-21T04:57:00;98571.19;;;11.96;84.87
76011;BME280;64701;43.536;1.478;2023-04-21T04:59:26;98576.84;;;11.99;84.31
76011;BME280;64701;43.536;1.478;2023-04-21T05:01:51;98585.63;;;12.00;83.94
76011;BME280;64701;43.536;1.478;2023-04-21T05:04:17;98580.91;;;12.02;84.19
76011;BME280;64701;43.536;1.478;2023-04-21T05:06:42;98586.44;;;12.00;83.99
76011;BME280;64701;43.536;1.478;2023-04-21T05:09:07;98584.59;;;12.01;84.62
76011;BME280;64701;43.536;1.478;2023-04-21T05:11:34;98581.94;;;12.01;84.27
76011;BME280;64701;43.536;1.478;2023-04-21T05:13:59;98579.50;;;11.99;85.02
76011;BME280;64701;43.536;1.478;2023-04-21T05:16:25;98576.16;;;12.04;84.22
76011;BME280;64701;43.536;1.478;2023-04-21T05:18:50;98576.97;;;12.04;84.88
76011;BME280;64701;43.536;1.478;2023-04-21T05:21:21;98582.75;;;12.01;85.37
76011;BME280;64701;43.536;1.478;2023-04-21T05:23:46;98571.91;;;12.03;84.93
76011;BME280;64701;43.536;1.478;2023-04-21T05:26:12;98577.44;;;12.01;85.09
76011;BME280;64701;43.536;1.478;2023-04-21T05:28:37;98579.88;;;12.03;85.64
76011;BME280;64701;43.536;1.478;2023-04-21T05:31:02;98582.66;;;12.08;84.82
76011;BME280;64701;43.536;1.478;2023-04-21T05:33:27;98589.22;;;12.05;85.61
76011;BME280;64701;43.536;1.478;2023-04-21T05:35:55;98587.50;;;12.11;85.81
76011;BME280;64701;43.536;1.478;2023-04-21T05:38:20;98593.63;;;12.11;86.30
76011;BME280;64701;43.536;1.478;2023-04-21T05:40:51;98592.53;;;12.19;84.94
76011;BME280;64701;43.536;1.478;2023-04-21T05:43:16;98597.97;;;12.24;85.54
76011;BME280;64701;43.536;1.478;2023-04-21T05:45:42;98599.59;;;12.25;85.23
76011;BME280;64701;43.536;1.478;2023-04-21T05:48:07;98596.72;;;12.26;85.05
76011;BME280;64701;43.536;1.478;2023-04-21T05:50:32;98600.75;;;12.29;85.35
76011;BME280;64701;43.536;1.478;2023-04-21T05:52:59;98601.47;;;12.36;85.06
76011;BME280;64701;43.536;1.478;2023-04-21T05:55:24;98602.63;;;12.40;85.10
76011;BME280;64701;43.536;1.478;2023-04-21T05:57:50;98600.09;;;12.45;84.72
76011;BME280;64701;43.536;1.478;2023-04-21T06:00:15;98609.13;;;12.44;84.96
76011;BME280;64701;43.536;1.478;2023-04-21T06:02:40;98605.78;;;12.49;85.41
76011;BME280;64701;43.536;1.478;2023-04-21T06:05:05;98608.91;;;12.57;84.93
76011;BME280;64701;43.536;1.478;2023-04-21T06:07:31;98608.47;;;12.60;85.07
76011;BME280;64701;43.536;1.478;2023-04-21T06:09:56;98611.38;;;12.71;85.81
76011;BME280;64701;43.536;1.478;2023-04-21T06:12:22;98610.03;;;12.80;86.15
76011;BME280;64701;43.536;1.478;2023-04-21T06:14:47;98616.06;;;12.87;85.59
76011;BME280;64701;43.536;1.478;2023-04-21T06:17:15;98608.31;;;12.85;85.40
76011;BME280;64701;43.536;1.478;2023-04-21T06:19:40;98622.41;;;12.86;85.59
76011;BME280;64701;43.536;1.478;2023-04-21T06:22:05;98614.78;;;12.89;85.80
76011;BME280;64701;43.536;1.478;2023-04-21T06:24:31;98617.44;;;13.01;84.57
76011;BME280;64701;43.536;1.478;2023-04-21T06:26:56;98618.84;;;13.03;84.82
76011;BME280;64701;43.536;1.478;2023-04-21T06:29:22;98612.34;;;12.99;85.00
76011;BME280;64701;43.536;1.478;2023-04-21T06:31:47;98624.16;;;13.03;84.91
76011;BME280;64701;43.536;1.478;2023-04-21T06:34:12;98623.81;;;13.12;84.59
76011;BME280;64701;43.536;1.478;2023-04-21T06:36:38;98615.03;;;13.11;84.79
76011;BME280;64701;43.536;1.478;2023-04-21T06:39:03;98631.59;;;13.13;84.85
76011;BME280;64701;43.536;1.478;2023-04-21T06:41:29;98618.41;;;13.18;84.72
76011;BME280;64701;43.536;1.478;2023-04-21T06:43:54;98615.31;;;13.21;84.81
76011;BME280;64701;43.536;1.478;2023-04-21T06:46:19;98619.00;;;13.32;84.33
76011;BME280;64701;43.536;1.478;2023-04-21T06:48:44;98618.78;;;13.33;84.11
76011;BME280;64701;43.536;1.478;2023-04-21T06:51:10;98617.97;;;13.33;84.32
76011;BME280;64701;43.536;1.478;2023-04-21T06:53:35;98619.13;;;13.37;84.56
76011;BME280;64701;43.536;1.478;2023-04-21T06:56:02;98612.44;;;13.46;84.00
76011;BME280;64701;43.536;1.478;2023-04-21T06:58:27;98620.16;;;13.47;84.06
76011;BME280;64701;43.536;1.478;2023-04-21T07:00:52;98612.28;;;13.53;83.29
76011;BME280;64701;43.536;1.478;2023-04-21T07:03:18;98622.00;;;13.59;83.57
76011;BME280;64701;43.536;1.478;2023-04-21T07:05:43;98617.75;;;13.58;83.53
76011;BME280;64701;43.536;1.478;2023-04-21T07:08:08;98617.94;;;13.68;83.40
76011;BME280;64701;43.536;1.478;2023-04-21T07:10:33;98617.38;;;13.66;83.37
76011;BME280;64701;43.536;1.478;2023-04-21T07:12:59;98621.19;;;13.81;83.13
76011;BME280;64701;43.536;1.478;2023-04-21T07:15:24;98619.31;;;13.82;82.87
76011;BME280;64701;43.536;1.478;2023-04-21T07:17:49;98620.13;;;13.94;82.67
76011;BME280;64701;43.536;1.478;2023-04-21T07:20:15;98620.13;;;13.94;82.35
76011;BME280;64701;43.536;1.478;2023-04-21T07:22:42;98620.44;;;13.98;82.94
76011;BME280;64701;43.536;1.478;2023-04-21T07:25:07;98613.16;;;13.93;82.83
76011;BME280;64701;43.536;1.478;2023-04-21T07:27:33;98616.59;;;14.05;82.47
76011;BME280;64701;43.536;1.478;2023-04-21T07:30:00;98616.22;;;14.13;82.56
76011;BME280;64701;43.536;1.478;2023-04-21T07:32:26;98613.78;;;14.23;82.43
76011;BME280;64701;43.536;1.478;2023-04-21T07:34:51;98617.34;;;14.29;81.61
76011;BME280;64701;43.536;1.478;2023-04-21T07:37:16;98606.56;;;14.36;81.53
76011;BME280;64701;43.536;1.478;2023-04-21T07:39:42;98607.06;;;14.49;81.50
76011;BME280;64701;43.536;1.478;2023-04-21T07:42:07;98602.19;;;14.58;81.47
76011;BME280;64701;43.536;1.478;2023-04-21T07:44:33;98603.16;;;14.68;80.81
76011;BME280;64701;43.536;1.478;2023-04-21T07:46:59;98603.59;;;14.77;80.05
76011;BME280;64701;43.536;1.478;2023-04-21T07:49:24;98598.88;;;14.84;79.72
76011;BME280;64701;43.536;1.478;2023-04-21T07:51:49;98610.19;;;14.91;80.30
76011;BME280;64701;43.536;1.478;2023-04-21T07:54:15;98595.91;;;14.97;79.71
76011;BME280;64701;43.536;1.478;2023-04-21T07:56:40;98597.59;;;15.03;79.10
76011;BME280;64701;43.536;1.478;2023-04-21T07:59:05;98599.31;;;15.09;79.32
76011;BME280;64701;43.536;1.478;2023-04-21T08:01:31;98602.03;;;15.15;79.07
76011;BME280;64701;43.536;1.478;2023-04-21T08:03:56;98600.75;;;15.17;78.56
76011;BME280;64701;43.536;1.478;2023-04-21T08:06:21;98606.16;;;15.22;78.36
76011;BME280;64701;43.536;1.478;2023-04-21T08:08:46;98597.13;;;15.23;78.45
76011;BME280;64701;43.536;1.478;2023-04-21T08:11:12;98602.22;;;15.25;78.66
76011;BME280;64701;43.536;1.478;2023-04-21T08:13:37;98602.59;;;15.33;78.70
76011;BME280;64701;43.536;1.478;2023-04-21T08:16:02;98589.66;;;15.42;78.21
76011;BME280;64701;43.536;1.478;2023-04-21T08:18:28;98591.75;;;15.40;77.74
76011;BME280;64701;43.536;1.478;2023-04-21T08:20:53;98596.63;;;15.43;76.99
76011;BME280;64701;43.536;1.478;2023-04-21T08:23:21;98592.41;;;15.47;76.80
76011;BME280;64701;43.536;1.478;2023-04-21T08:25:46;98595.16;;;15.52;76.82
76011;BME280;64701;43.536;1.478;2023-04-21T08:28:11;98605.50;;;15.48;76.35
76011;BME280;64701;43.536;1.478;2023-04-21T08:30:38;98592.56;;;15.57;75.88
76011;BME280;64701;43.536;1.478;2023-04-21T08:33:03;98593.19;;;15.64;75.76
76011;BME280;64701;43.536;1.478;2023-04-21T08:35:28;98594.63;;;15.72;75.35
76011;BME280;64701;43.536;1.478;2023-04-21T08:37:54;98584.88;;;15.82;75.71
76011;BME280;64701;43.536;1.478;2023-04-21T08:40:19;98580.81;;;15.97;76.21
76011;BME280;64701;43.536;1.478;2023-04-21T08:42:44;98590.53;;;16.08;75.57
76011;BME280;64701;43.536;1.478;2023-04-21T08:45:10;98577.78;;;16.15;74.79
76011;BME280;64701;43.536;1.478;2023-04-21T08:47:37;98577.09;;;16.24;75.21
76011;BME280;64701;43.536;1.478;2023-04-21T08:50:02;98578.72;;;16.25;74.00
76011;BME280;64701;43.536;1.478;2023-04-21T08:52:27;98569.94;;;16.30;74.10
76011;BME280;64701;43.536;1.478;2023-04-21T08:54:53;98572.09;;;16.33;74.67
76011;BME280;64701;43.536;1.478;2023-04-21T08:57:19;98574.09;;;16.43;73.85
76011;BME280;64701;43.536;1.478;2023-04-21T08:59:44;98581.38;;;16.52;74.13
76011;BME280;64701;43.536;1.478;2023-04-21T09:02:16;98597.53;;;16.62;74.31
76011;BME280;64701;43.536;1.478;2023-04-21T09:04:46;98596.28;;;16.70;72.72
76011;BME280;64701;43.536;1.478;2023-04-21T09:07:12;98585.69;;;16.80;72.11
76011;BME280;64701;43.536;1.478;2023-04-21T09:09:54;98595.88;;;16.83;71.41
76011;BME280;64701;43.536;1.478;2023-04-21T09:12:20;98583.41;;;16.99;72.10
76011;BME280;64701;43.536;1.478;2023-04-21T09:14:45;98588.75;;;16.99;70.85
76011;BME280;64701;43.536;1.478;2023-04-21T09:17:11;98596.25;;;16.97;70.77
76011;BME280;64701;43.536;1.478;2023-04-21T09:19:36;98595.19;;;16.98;70.21
76011;BME280;64701;43.536;1.478;2023-04-21T09:22:02;98586.72;;;17.11;71.27
76011;BME280;64701;43.536;1.478;2023-04-21T09:24:28;98572.34;;;17.22;71.08
76011;BME280;64701;43.536;1.478;2023-04-21T09:26:54;98577.47;;;17.29;68.97
76011;BME280;64701;43.536;1.478;2023-04-21T09:29:23;98582.91;;;17.39;69.32
76011;BME280;64701;43.536;1.478;2023-04-21T09:31:48;98567.16;;;17.47;69.75
76011;BME280;64701;43.536;1.478;2023-04-21T09:34:16;98568.09;;;17.63;70.22
76011;BME280;64701;43.536;1.478;2023-04-21T09:36:42;98569.69;;;17.64;69.44
76011;BME280;64701;43.536;1.478;2023-04-21T09:39:09;98571.06;;;17.72;69.14
76011;BME280;64701;43.536;1.478;2023-04-21T09:41:34;98567.94;;;17.90;70.52
76011;BME280;64701;43.536;1.478;2023-04-21T09:43:59;98567.44;;;17.98;67.95
76011;BME280;64701;43.536;1.478;2023-04-21T09:46:34;98569.34;;;18.13;68.58
76011;BME280;64701;43.536;1.478;2023-04-21T09:49:00;98575.50;;;18.08;66.89
76011;BME280;64701;43.536;1.478;2023-04-21T09:51:26;98576.03;;;18.05;65.02
76011;BME280;64701;43.536;1.478;2023-04-21T09:53:52;98575.72;;;17.97;63.48
76011;BME280;64701;43.536;1.478;2023-04-21T09:56:18;98574.13;;;18.06;64.24
76011;BME280;64701;43.536;1.478;2023-04-21T09:58:46;98574.19;;;18.21;65.22
76011;BME280;64701;43.536;1.478;2023-04-21T10:01:13;98580.94;;;18.39;64.11
76011;BME280;64701;43.536;1.478;2023-04-21T10:03:38;98567.03;;;18.47;64.46
76011;BME280;64701;43.536;1.478;2023-04-21T10:06:07;98569.72;;;18.52;63.13
76011;BME280;64701;43.536;1.478;2023-04-21T10:08:32;98568.09;;;18.51;63.25
76011;BME280;64701;43.536;1.478;2023-04-21T10:10:58;98579.13;;;18.74;64.89
76011;BME280;64701;43.536;1.478;2023-04-21T10:13:24;98566.00;;;18.73;64.00
76011;BME280;64701;43.536;1.478;2023-04-21T10:15:49;98566.81;;;18.94;65.04
76011;BME280;64701;43.536;1.478;2023-04-21T10:18:25;98571.91;;;19.00;63.48
76011;BME280;64701;43.536;1.478;2023-04-21T10:28:56;98564.06;;;19.34;63.61
76011;BME280;64701;43.536;1.478;2023-04-21T10:39:09;98564.50;;;19.82;61.36
76011;BME280;64701;43.536;1.478;2023-04-21T10:41:37;98558.28;;;19.86;59.72
76011;BME280;64701;43.536;1.478;2023-04-21T10:46:35;98553.38;;;20.04;58.99
76011;BME280;64701;43.536;1.478;2023-04-21T10:49:04;98550.16;;;20.07;57.46
76011;BME280;64701;43.536;1.478;2023-04-21T10:51:29;98553.59;;;20.17;59.56
76011;BME280;64701;43.536;1.478;2023-04-21T10:53:57;98557.13;;;20.08;56.69
76011;BME280;64701;43.536;1.478;2023-04-21T10:56:22;98564.09;;;20.14;56.09
76011;BME280;64701;43.536;1.478;2023-04-21T10:58:48;98553.63;;;20.12;56.01
76011;BME280;64701;43.536;1.478;2023-04-21T11:01:13;98553.78;;;20.36;55.28
76011;BME280;64701;43.536;1.478;2023-04-21T11:03:39;98558.53;;;20.44;55.98
76011;BME280;64701;43.536;1.478;2023-04-21T11:06:14;98549.00;;;20.62;55.64
76011;BME280;64701;43.536;1.478;2023-04-21T11:08:55;98541.28;;;20.50;53.26
76011;BME280;64701;43.536;1.478;2023-04-21T11:11:21;98547.13;;;20.67;56.27
76011;BME280;64701;43.536;1.478;2023-04-21T11:13:51;98545.63;;;20.80;54.11
76011;BME280;64701;43.536;1.478;2023-04-21T11:16:16;98539.88;;;20.92;54.36
76011;BME280;64701;43.536;1.478;2023-04-21T11:18:43;98551.50;;;20.87;54.03
76011;BME280;64701;43.536;1.478;2023-04-21T11:21:12;98550.06;;;21.00;52.62
76011;BME280;64701;43.536;1.478;2023-04-21T11:23:46;98534.91;;;21.09;53.18
76011;BME280;64701;43.536;1.478;2023-04-21T11:26:12;98553.69;;;21.19;53.50
76011;BME280;64701;43.536;1.478;2023-04-21T11:28:38;98536.13;;;21.27;53.68
76011;BME280;64701;43.536;1.478;2023-04-21T11:31:04;98539.50;;;21.37;54.35
76011;BME280;64701;43.536;1.478;2023-04-21T11:33:30;98529.19;;;21.44;53.82
76011;BME280;64701;43.536;1.478;2023-04-21T11:36:02;98534.25;;;21.51;52.93
76011;BME280;64701;43.536;1.478;2023-04-21T11:38:32;98531.56;;;21.70;52.77
76011;BME280;64701;43.536;1.478;2023-04-21T11:41:00;98533.69;;;21.73;51.34
76011;BME280;64701;43.536;1.478;2023-04-21T11:43:25;98528.88;;;21.70;50.32
76011;BME280;64701;43.536;1.478;2023-04-21T11:45:51;98536.25;;;21.83;51.69
76011;BME280;64701;43.536;1.478;2023-04-21T11:48:16;98531.47;;;21.80;51.64
76011;BME280;64701;43.536;1.478;2023-04-21T11:50:49;98527.72;;;21.76;51.86
76011;BME280;64701;43.536;1.478;2023-04-21T11:53:15;98521.03;;;21.97;52.60
76011;BME280;64701;43.536;1.478;2023-04-21T11:55:41;98524.00;;;21.72;51.72
76011;BME280;64701;43.536;1.478;2023-04-21T11:58:06;98523.81;;;21.87;54.12
76011;BME280;64701;43.536;1.478;2023-04-21T12:00:31;98519.94;;;21.93;51.56
76011;BME280;64701;43.536;1.478;2023-04-21T12:02:57;98516.44;;;21.97;51.06
76011;BME280;64701;43.536;1.478;2023-04-21T12:05:22;98511.84;;;22.17;52.41
76011;BME280;64701;43.536;1.478;2023-04-21T12:07:48;98512.50;;;22.09;52.05
76011;BME280;64701;43.536;1.478;2023-04-21T12:10:16;98521.16;;;22.06;51.57
76011;BME280;64701;43.536;1.478;2023-04-21T12:12:42;98512.50;;;22.09;52.81
76011;BME280;64701;43.536;1.478;2023-04-21T12:15:11;98506.06;;;22.05;50.54
76011;BME280;64701;43.536;1.478;2023-04-21T12:17:43;98505.59;;;22.21;52.45
76011;BME280;64701;43.536;1.478;2023-04-21T12:20:09;98509.59;;;22.24;50.69
76011;BME280;64701;43.536;1.478;2023-04-21T12:22:35;98496.09;;;22.43;51.48
76011;BME280;64701;43.536;1.478;2023-04-21T12:25:00;98512.41;;;22.70;51.55
76011;BME280;64701;43.536;1.478;2023-04-21T12:27:26;98500.50;;;23.03;50.81
76011;BME280;64701;43.536;1.478;2023-04-21T12:29:51;98498.63;;;23.31;49.03
76011;BME280;64701;43.536;1.478;2023-04-21T12:32:16;98501.66;;;23.71;52.84
76011;BME280;64701;43.536;1.478;2023-04-21T12:34:42;98503.47;;;23.75;51.43
76011;BME280;64701;43.536;1.478;2023-04-21T12:37:07;98525.66;;;23.99;47.50
76011;BME280;64701;43.536;1.478;2023-04-21T12:39:33;98509.16;;;23.87;46.56
76011;BME280;64701;43.536;1.478;2023-04-21T12:41:58;98506.25;;;24.33;47.61
76011;BME280;64701;43.536;1.478;2023-04-21T12:44:24;98501.22;;;24.40;46.51
76011;BME280;64701;43.536;1.478;2023-04-21T12:46:50;98499.19;;;24.68;47.62
76011;BME280;64701;43.536;1.478;2023-04-21T12:49:15;98490.47;;;24.71;45.75
76011;BME280;64701;43.536;1.478;2023-04-21T12:51:41;98489.09;;;24.83;48.42
76011;BME280;64701;43.536;1.478;2023-04-21T12:54:07;98485.41;;;25.01;44.18
76011;BME280;64701;43.536;1.478;2023-04-21T12:56:32;98494.28;;;25.24;44.91
76011;BME280;64701;43.536;1.478;2023-04-21T12:58:58;98487.31;;;25.40;44.93
76011;BME280;64701;43.536;1.478;2023-04-21T13:01:23;98489.81;;;25.58;43.17
76011;BME280;64701;43.536;1.478;2023-04-21T13:03:48;98493.53;;;25.40;42.00
76011;BME280;64701;43.536;1.478;2023-04-21T13:06:14;98484.78;;;25.43;42.53
76011;BME280;64701;43.536;1.478;2023-04-21T13:08:39;98501.00;;;25.66;44.41
76011;BME280;64701;43.536;1.478;2023-04-21T13:11:04;98482.91;;;25.52;43.93